createdAt,value
2018-04-02T00:00:24.587Z,4.70
2018-04-02T00:02:51.275Z,4.70
2018-04-02T00:05:17.587Z,4.80
2018-04-02T00:07:44.006Z,4.80
2018-04-02T00:10:11.114Z,4.80
2018-04-02T00:12:38.367Z,4.80
2018-04-02T00:15:05.619Z,4.80
2018-04-02T00:17:31.947Z,4.90
2018-04-02T00:19:58.295Z,4.90
2018-04-02T00:22:25.449Z,4.90
2018-04-02T00:24:51.756Z,4.90
2018-04-02T00:27:18.072Z,4.90
2018-04-02T00:29:45.379Z,4.80
2018-04-02T00:32:11.691Z,4.90
2018-04-02T00:34:38.763Z,4.90
2018-04-02T00:37:06.230Z,4.90
2018-04-02T00:39:32.567Z,5.00
2018-04-02T00:41:59.726Z,5.10
2018-04-02T00:44:26.951Z,5.10
2018-04-02T00:46:54.035Z,5.10
2018-04-02T00:49:21.704Z,5.00
2018-04-02T00:51:48.003Z,5.00
2018-04-02T00:54:15.191Z,5.10
2018-04-02T00:56:41.499Z,5.00
2018-04-02T00:59:07.810Z,5.10
2018-04-02T01:01:35.219Z,5.10
2018-04-02T01:04:01.543Z,5.00
2018-04-02T01:06:29.434Z,5.00
2018-04-02T01:08:55.746Z,5.10
2018-04-02T01:11:24.768Z,5.10
2018-04-02T01:13:51.075Z,5.10
2018-04-02T01:16:17.383Z,5.10
2018-04-02T01:18:44.665Z,5.10
2018-04-02T01:21:11.811Z,5.10
2018-04-02T01:23:38.179Z,5.20
2018-04-02T01:26:04.531Z,5.10
2018-04-02T01:28:33.619Z,5.10
2018-04-02T01:30:59.962Z,5.10
2018-04-02T01:33:27.315Z,5.20
2018-04-02T01:35:53.629Z,5.20
2018-04-02T01:38:20.715Z,5.10
2018-04-02T01:40:47.770Z,5.00
2018-04-02T01:43:15.563Z,5.00
2018-04-02T01:45:44.329Z,5.00
2018-04-02T01:48:11.480Z,4.90
2018-04-02T01:50:37.791Z,5.00
2018-04-02T01:53:04.111Z,5.00
2018-04-02T01:55:31.411Z,5.00
2018-04-02T01:57:57.739Z,5.00
2018-04-02T02:00:24.080Z,5.00
2018-04-02T02:02:50.835Z,5.00
2018-04-02T02:05:17.983Z,5.00
2018-04-02T02:07:44.321Z,5.00
2018-04-02T02:10:11.571Z,5.00
2018-04-02T02:12:38.623Z,5.00
2018-04-02T02:15:04.939Z,5.00
2018-04-02T02:17:32.023Z,5.00
2018-04-02T02:19:59.071Z,5.00
2018-04-02T02:22:25.411Z,5.00
2018-04-02T02:24:51.716Z,5.00
2018-04-02T02:27:18.391Z,5.00
2018-04-02T02:29:44.714Z,4.90
2018-04-02T02:32:11.115Z,4.90
2018-04-02T02:34:38.236Z,4.90
2018-04-02T02:37:05.575Z,4.90
2018-04-02T02:39:31.896Z,4.80
2018-04-02T02:41:58.244Z,4.90
2018-04-02T02:44:25.554Z,4.90
2018-04-02T02:46:53.421Z,4.90
2018-04-02T02:49:20.475Z,4.90
2018-04-02T02:51:47.580Z,4.90
2018-04-02T02:54:14.995Z,4.90
2018-04-02T02:56:41.308Z,4.80
2018-04-02T02:59:08.357Z,4.60
2018-04-02T03:01:36.001Z,4.50
2018-04-02T03:04:02.695Z,4.50
2018-04-02T03:06:29.800Z,4.40
2018-04-02T03:08:56.099Z,4.30
2018-04-02T03:11:23.691Z,4.30
2018-04-02T03:13:50.059Z,4.20
2018-04-02T03:16:18.111Z,4.10
2018-04-02T03:18:44.421Z,4.00
2018-04-02T03:21:10.742Z,4.00
2018-04-02T03:23:37.426Z,4.00
2018-04-02T03:26:03.736Z,3.90
2018-04-02T03:28:30.118Z,3.80
2018-04-02T03:30:56.462Z,3.80
2018-04-02T03:33:23.437Z,3.80
2018-04-02T03:35:50.531Z,3.60
2018-04-02T03:38:17.697Z,3.60
2018-04-02T03:40:43.996Z,3.60
2018-04-02T03:43:11.116Z,3.60
2018-04-02T03:45:38.135Z,3.50
2018-04-02T03:48:05.186Z,3.50
2018-04-02T03:50:31.502Z,3.50
2018-04-02T03:52:57.801Z,3.50
2018-04-02T03:55:25.529Z,3.40
2018-04-02T03:57:51.840Z,3.40
2018-04-02T04:00:19.124Z,3.30
2018-04-02T04:02:45.438Z,3.30
2018-04-02T04:05:12.805Z,3.20
2018-04-02T04:07:39.120Z,3.10
2018-04-02T04:10:05.433Z,3.00
2018-04-02T04:12:33.260Z,2.90
2018-04-02T04:14:59.572Z,2.90
2018-04-02T04:17:25.921Z,2.80
2018-04-02T04:19:52.475Z,2.70
2018-04-02T04:22:18.788Z,2.70
2018-04-02T04:24:45.208Z,2.70
2018-04-02T04:27:11.846Z,2.60
2018-04-02T04:29:38.156Z,2.60
2018-04-02T04:32:04.451Z,2.60
2018-04-02T04:34:31.441Z,2.50
2018-04-02T04:36:59.388Z,2.40
2018-04-02T04:39:25.716Z,2.30
2018-04-02T04:41:52.034Z,2.40
2018-04-02T04:44:19.216Z,2.40
2018-04-02T04:46:46.575Z,2.30
2018-04-02T04:49:12.888Z,2.30
2018-04-02T04:51:39.200Z,2.30
2018-04-02T04:54:05.793Z,2.20
2018-04-02T04:56:32.964Z,2.20
2018-04-02T04:59:01.530Z,2.20
2018-04-02T05:01:29.404Z,2.20
2018-04-02T05:03:55.726Z,2.10
2018-04-02T05:06:22.044Z,2.10
2018-04-02T05:08:48.625Z,2.10
2018-04-02T05:11:15.977Z,2.20
2018-04-02T05:13:43.440Z,2.20
2018-04-02T05:16:09.750Z,2.10
2018-04-02T05:18:36.055Z,2.10
2018-04-02T05:21:03.473Z,2.10
2018-04-02T05:23:29.808Z,2.00
2018-04-02T05:25:56.240Z,2.10
2018-04-02T05:28:22.636Z,2.10
2018-04-02T05:30:49.681Z,2.10
2018-04-02T05:33:17.612Z,2.20
2018-04-02T05:35:43.927Z,2.20
2018-04-02T05:38:11.203Z,2.20
2018-04-02T05:40:37.519Z,2.20
2018-04-02T05:43:04.600Z,2.20
2018-04-02T05:45:32.368Z,2.30
2018-04-02T05:47:58.673Z,2.40
2018-04-02T05:50:25.756Z,2.50
2018-04-02T05:52:52.065Z,2.50
2018-04-02T05:55:19.244Z,2.60
2018-04-02T06:09:54.700Z,3.60
2018-04-02T06:12:21.746Z,3.60
2018-04-02T06:14:48.801Z,3.60
2018-04-02T06:17:16.161Z,3.60
2018-04-02T06:19:43.420Z,3.60
2018-04-02T06:22:10.369Z,3.70
2018-04-02T06:24:37.523Z,3.70
2018-04-02T06:27:04.676Z,3.80
2018-04-02T06:29:32.559Z,3.90
2018-04-02T06:32:01.339Z,4.00
2018-04-02T06:34:28.804Z,4.10
2018-04-02T06:36:55.930Z,4.20
2018-04-02T06:39:23.210Z,4.20
2018-04-02T06:41:50.268Z,4.40
2018-04-02T06:44:17.219Z,4.40
2018-04-02T06:46:44.681Z,4.50
2018-04-02T06:49:11.697Z,4.60
2018-04-02T06:51:39.615Z,4.60
2018-04-02T06:54:06.817Z,4.70
2018-04-02T06:56:33.956Z,4.80
2018-04-02T06:59:01.896Z,5.00
2018-04-02T07:01:29.978Z,5.00
2018-04-02T07:03:57.272Z,5.10
2018-04-02T07:06:25.106Z,5.20
2018-04-02T07:08:52.392Z,5.20
2018-04-02T07:11:20.225Z,5.30
2018-04-02T07:13:47.481Z,5.30
2018-04-02T07:16:14.945Z,5.40
2018-04-02T07:18:42.108Z,5.40
2018-04-02T07:21:09.156Z,5.50
2018-04-02T07:23:36.508Z,5.60
2018-04-02T07:26:03.769Z,5.70
2018-04-02T07:28:31.946Z,5.70
2018-04-02T07:30:59.231Z,5.80
2018-04-02T07:33:26.368Z,5.90
2018-04-02T07:35:53.513Z,6.00
2018-04-02T07:38:20.684Z,6.10
2018-04-02T07:40:47.849Z,6.30
2018-04-02T07:43:14.984Z,6.30
2018-04-02T07:45:42.239Z,6.40
2018-04-02T07:48:09.500Z,6.50
2018-04-02T07:50:36.571Z,6.50
2018-04-02T07:53:03.910Z,6.60
2018-04-02T07:55:31.065Z,6.70
2018-04-02T07:57:59.041Z,6.70
2018-04-02T08:00:26.504Z,6.80
2018-04-02T08:02:54.051Z,6.90
2018-04-02T08:05:22.039Z,7.00
2018-04-02T08:07:49.195Z,7.10
2018-04-02T08:10:16.456Z,7.20
2018-04-02T08:12:43.814Z,7.30
2018-04-02T08:15:10.988Z,7.30
2018-04-02T08:17:38.332Z,7.50
2018-04-02T08:20:06.413Z,7.60
2018-04-02T08:22:33.425Z,7.70
2018-04-02T08:25:00.436Z,7.90
2018-04-02T08:27:28.279Z,8.00
2018-04-02T08:29:55.428Z,8.00
2018-04-02T08:32:22.492Z,8.10
2018-04-02T08:34:49.587Z,8.20
2018-04-02T08:37:17.513Z,8.30
2018-04-02T08:39:44.668Z,8.30
2018-04-02T08:42:11.929Z,8.40
2018-04-02T08:44:39.178Z,8.50
2018-04-02T08:47:06.236Z,8.50
2018-04-02T08:49:33.297Z,8.50
2018-04-02T08:52:00.644Z,8.60
2018-04-02T08:54:28.009Z,8.60
2018-04-02T08:56:55.166Z,8.70
2018-04-02T08:59:22.215Z,8.80
2018-04-02T09:01:49.388Z,8.90
2018-04-02T09:04:17.449Z,9.00
2018-04-02T09:06:44.711Z,9.10
2018-04-02T09:09:11.762Z,9.10
2018-04-02T09:11:38.713Z,9.20
2018-04-02T09:14:06.074Z,9.30
2018-04-02T09:16:33.122Z,9.40
2018-04-02T09:19:00.195Z,9.40
2018-04-02T09:21:28.353Z,9.50
2018-04-02T09:23:55.820Z,9.50
2018-04-02T09:26:23.812Z,9.60
2018-04-02T09:28:50.945Z,9.70
2018-04-02T09:31:17.999Z,9.70
2018-04-02T09:33:45.227Z,9.80
2018-04-02T09:36:12.307Z,9.80
2018-04-02T09:38:39.444Z,9.90
2018-04-02T09:41:06.516Z,10.00
2018-04-02T09:43:33.672Z,10.10
2018-04-02T09:46:00.825Z,10.10
2018-04-02T09:48:27.981Z,10.20
2018-04-02T09:50:55.346Z,10.30
2018-04-02T09:53:22.702Z,10.40
2018-04-02T09:55:49.960Z,10.40
2018-04-02T09:58:17.332Z,10.50
2018-04-02T10:00:45.396Z,10.60
2018-04-02T10:03:12.636Z,10.60
2018-04-02T10:05:39.714Z,10.70
2018-04-02T10:08:06.860Z,10.80
2018-04-02T10:10:35.625Z,10.90
2018-04-02T10:13:02.817Z,11.00
2018-04-02T10:15:30.255Z,11.10
2018-04-02T10:17:58.145Z,11.20
2018-04-02T10:20:25.299Z,11.20
2018-04-02T10:22:52.444Z,11.30
2018-04-02T10:25:19.604Z,11.30
2018-04-02T10:27:46.760Z,11.40
2018-04-02T10:30:13.820Z,11.50
2018-04-02T10:32:40.976Z,11.50
2018-04-02T10:35:08.129Z,11.60
2018-04-02T10:37:35.382Z,11.60
2018-04-02T10:40:02.644Z,11.70
2018-04-02T10:42:29.692Z,11.70
2018-04-02T10:44:56.752Z,11.70
2018-04-02T10:47:24.924Z,11.80
2018-04-02T10:49:51.977Z,11.90
2018-04-02T10:52:19.756Z,12.00
2018-04-02T10:54:47.509Z,12.10
2018-04-02T10:57:14.613Z,12.00
2018-04-02T10:59:42.572Z,12.20
2018-04-02T11:02:11.164Z,12.20
2018-04-02T11:04:39.100Z,12.30
2018-04-02T11:07:06.659Z,12.20
2018-04-02T11:09:34.048Z,12.40
2018-04-02T11:12:01.185Z,12.40
2018-04-02T11:14:28.332Z,12.40
2018-04-02T11:16:56.516Z,12.60
2018-04-02T11:19:23.577Z,12.60
2018-04-02T11:21:50.716Z,12.80
2018-04-02T11:24:17.780Z,12.80
2018-04-02T11:26:44.932Z,12.80
2018-04-02T11:29:12.289Z,12.80
2018-04-02T11:31:39.344Z,12.90
2018-04-02T11:34:06.900Z,12.90
2018-04-02T11:36:33.865Z,13.00
2018-04-02T11:39:00.920Z,13.10
2018-04-02T11:41:28.268Z,13.30
2018-04-02T11:43:55.316Z,13.30
2018-04-02T11:46:22.376Z,13.40
2018-04-02T11:48:49.505Z,13.40
2018-04-02T11:51:16.894Z,13.40
2018-04-02T11:53:44.864Z,13.50
2018-04-02T11:56:12.023Z,13.50
2018-04-02T11:58:39.074Z,13.60
2018-04-02T12:01:06.441Z,13.60
2018-04-02T12:03:33.526Z,13.70
2018-04-02T12:06:01.845Z,14.00
2018-04-02T12:08:28.977Z,14.00
2018-04-02T12:10:56.312Z,14.00
2018-04-02T12:13:24.356Z,14.20
2018-04-02T12:15:51.616Z,14.20
2018-04-02T12:18:18.868Z,14.30
2018-04-02T12:20:46.033Z,14.40
2018-04-02T12:23:13.077Z,14.50
2018-04-02T12:25:40.240Z,14.60
2018-04-02T12:28:07.287Z,14.70
2018-04-02T12:30:34.844Z,14.60
2018-04-02T12:33:02.124Z,14.70
2018-04-02T12:35:29.113Z,14.70
2018-04-02T12:37:56.320Z,14.90
2018-04-02T12:40:23.784Z,15.00
2018-04-02T12:42:51.036Z,15.10
2018-04-02T12:45:18.816Z,15.20
2018-04-02T12:47:45.858Z,15.40
2018-04-02T12:50:12.916Z,15.40
2018-04-02T12:52:39.959Z,15.40
2018-04-02T12:55:07.273Z,15.40
2018-04-02T12:57:34.273Z,15.40
2018-04-02T13:00:01.432Z,15.50
2018-04-02T13:02:28.584Z,15.70
2018-04-02T13:04:55.639Z,15.90
2018-04-02T13:07:22.708Z,15.90
2018-04-02T13:09:49.852Z,15.90
2018-04-02T13:12:16.905Z,16.10
2018-04-02T13:14:43.954Z,16.10
2018-04-02T13:17:11.009Z,16.30
2018-04-02T13:19:38.241Z,16.30
2018-04-02T13:22:05.312Z,16.40
2018-04-02T13:24:32.468Z,16.40
2018-04-02T13:27:00.041Z,16.40
2018-04-02T13:29:27.091Z,16.50
2018-04-02T13:31:54.239Z,16.50
2018-04-02T13:34:21.405Z,16.60
2018-04-02T13:36:48.506Z,16.40
2018-04-02T13:39:15.818Z,16.40
2018-04-02T13:41:43.068Z,16.50
2018-04-02T13:44:10.422Z,16.60
2018-04-02T13:46:38.282Z,16.70
2018-04-02T13:49:05.348Z,16.90
2018-04-02T13:51:32.409Z,16.90
2018-04-02T13:53:59.562Z,17.00
2018-04-02T13:56:26.723Z,17.00
2018-04-02T13:58:53.868Z,17.00
2018-04-02T14:01:21.031Z,16.90
2018-04-02T14:03:48.284Z,16.90
2018-04-02T14:06:15.337Z,16.90
2018-04-02T14:08:42.392Z,17.00
2018-04-02T14:11:09.644Z,16.90
2018-04-02T14:13:36.698Z,17.00
2018-04-02T14:16:04.065Z,17.10
2018-04-02T14:18:31.112Z,17.20
2018-04-02T14:20:58.168Z,17.10
2018-04-02T14:23:25.322Z,17.10
2018-04-02T14:25:52.377Z,17.60
2018-04-02T14:28:19.428Z,18.20
2018-04-02T14:30:46.580Z,18.90
2018-04-02T14:33:13.740Z,19.30
2018-04-02T14:35:40.996Z,19.70
2018-04-02T14:38:08.247Z,20.10
2018-04-02T14:40:35.408Z,20.40
2018-04-02T14:43:02.668Z,20.30
2018-04-02T14:45:29.644Z,20.00
2018-04-02T14:47:58.108Z,19.90
2018-04-02T14:50:25.155Z,19.90
2018-04-02T14:52:52.318Z,19.90
2018-04-02T14:55:19.519Z,19.80
2018-04-02T14:57:47.644Z,19.60
2018-04-02T15:00:14.947Z,19.40
2018-04-02T15:02:42.876Z,18.70
2018-04-02T15:05:10.133Z,18.60
2018-04-02T15:07:37.900Z,18.60
2018-04-02T15:10:05.160Z,18.60
2018-04-02T15:12:32.412Z,18.60
2018-04-02T15:14:59.572Z,18.70
2018-04-02T15:17:26.905Z,18.80
2018-04-02T15:19:53.988Z,19.00
2018-04-02T15:22:21.253Z,18.80
2018-04-02T15:24:49.877Z,18.70
2018-04-02T15:27:16.980Z,18.70
2018-04-02T15:29:44.339Z,19.10
2018-04-02T15:32:11.600Z,19.40
2018-04-02T15:34:39.128Z,19.80
2018-04-02T15:37:06.529Z,19.80
2018-04-02T15:39:33.526Z,19.80
2018-04-02T15:42:00.732Z,19.70
2018-04-02T15:44:27.785Z,19.60
2018-04-02T15:46:54.945Z,19.70
2018-04-02T15:49:22.061Z,19.70
2018-04-02T15:51:49.395Z,19.60
2018-04-02T15:54:18.243Z,19.70
2018-04-02T15:56:45.442Z,19.60
2018-04-02T15:59:13.376Z,18.60
2018-04-02T16:01:40.435Z,18.60
2018-04-02T16:04:08.298Z,18.00
2018-04-02T16:06:35.354Z,17.70
2018-04-02T16:09:02.513Z,17.40
2018-04-02T16:11:29.508Z,17.10
2018-04-02T16:13:57.337Z,16.60
2018-04-02T16:16:24.328Z,16.60
2018-04-02T16:18:52.865Z,16.00
2018-04-02T16:21:20.018Z,16.10
2018-04-02T16:23:47.220Z,15.90
2018-04-02T16:26:15.066Z,15.50
2018-04-02T16:28:42.212Z,15.50
2018-04-02T16:31:09.257Z,15.30
2018-04-02T16:33:36.307Z,15.10
2018-04-02T16:36:03.781Z,14.90
2018-04-02T16:38:30.933Z,14.70
2018-04-02T16:40:58.080Z,14.50
2018-04-02T16:43:25.452Z,14.40
2018-04-02T16:45:53.393Z,14.20
2018-04-02T16:48:20.546Z,14.10
2018-04-02T16:50:47.728Z,14.00
2018-04-02T16:53:14.880Z,13.90
2018-04-02T16:55:42.050Z,13.80
2018-04-02T16:58:09.137Z,13.60
2018-04-02T17:00:36.970Z,13.40
2018-04-02T17:03:04.120Z,13.30
2018-04-02T17:05:30.436Z,13.20
2018-04-02T17:07:56.780Z,13.00
2018-04-02T17:10:23.345Z,12.90
2018-04-02T17:12:49.659Z,12.90
2018-04-02T17:15:16.725Z,12.80
2018-04-02T17:17:43.043Z,12.70
2018-04-02T17:20:09.376Z,12.60
2018-04-02T17:22:35.729Z,12.50
2018-04-02T17:25:02.056Z,12.40
2018-04-02T17:27:29.232Z,12.30
2018-04-02T17:29:55.560Z,12.20
2018-04-02T17:32:23.641Z,12.10
2018-04-02T17:34:49.945Z,12.10
2018-04-02T17:37:17.310Z,12.00
2018-04-02T17:39:44.279Z,11.90
2018-04-02T17:42:11.369Z,11.70
2018-04-02T17:44:39.210Z,11.70
2018-04-02T17:47:06.777Z,11.60
2018-04-02T17:49:33.105Z,11.60
2018-04-02T17:52:00.751Z,11.60
2018-04-02T17:54:27.122Z,11.50
2018-04-02T17:56:54.172Z,11.60
2018-04-02T17:59:20.486Z,11.50
2018-04-02T18:01:48.068Z,11.50
2018-04-02T18:04:14.383Z,11.40
2018-04-02T18:06:40.701Z,11.40
2018-04-02T18:09:07.701Z,11.40
2018-04-02T18:11:34.745Z,11.30
2018-04-02T18:14:01.796Z,11.30
2018-04-02T18:16:28.158Z,11.20
2018-04-02T18:18:54.481Z,11.20
2018-04-02T18:21:20.841Z,11.20
2018-04-02T18:23:48.876Z,11.20
2018-04-02T18:26:15.182Z,11.20
2018-04-02T18:28:42.497Z,11.20
2018-04-02T18:31:09.499Z,11.20
2018-04-02T18:33:35.818Z,11.20
2018-04-02T18:36:02.954Z,11.20
2018-04-02T18:38:30.065Z,11.20
2018-04-02T18:40:56.390Z,11.20
2018-04-02T18:43:23.673Z,11.20
2018-04-02T18:45:50.937Z,11.20
2018-04-02T18:48:18.087Z,11.10
2018-04-02T18:50:44.407Z,11.20
2018-04-02T18:53:11.512Z,11.10
2018-04-02T18:55:38.593Z,11.20
2018-04-02T18:58:05.653Z,11.20
2018-04-02T19:00:34.002Z,11.20
2018-04-02T19:03:01.216Z,11.20
2018-04-02T19:05:27.539Z,11.20
2018-04-02T19:07:53.863Z,11.20
2018-04-02T19:10:20.434Z,11.20
2018-04-02T19:12:48.339Z,11.30
2018-04-02T19:15:16.082Z,11.20
2018-04-02T19:17:43.120Z,11.20
2018-04-02T19:20:09.435Z,11.20
2018-04-02T19:22:36.513Z,11.20
2018-04-02T19:25:02.911Z,11.20
2018-04-02T19:27:30.044Z,11.20
2018-04-02T19:29:57.121Z,11.20
2018-04-02T19:32:24.112Z,11.20
2018-04-02T19:34:51.266Z,11.20
2018-04-02T19:37:17.578Z,11.30
2018-04-02T19:39:44.409Z,11.30
2018-04-02T19:42:11.092Z,11.30
2018-04-02T19:44:38.253Z,11.30
2018-04-02T19:47:06.027Z,11.40
2018-04-02T19:49:32.394Z,11.40
2018-04-02T19:52:00.753Z,11.50
2018-04-02T19:54:27.449Z,11.50
2018-04-02T19:56:54.712Z,11.50
2018-04-02T19:59:21.019Z,11.50
2018-04-02T20:01:49.060Z,11.50
2018-04-02T20:04:15.407Z,11.50
2018-04-02T20:06:41.826Z,11.50
2018-04-02T20:09:08.474Z,11.50
2018-04-02T20:11:35.725Z,11.40
2018-04-02T20:14:02.879Z,11.40
2018-04-02T20:16:29.221Z,11.40
2018-04-02T20:18:56.375Z,11.40
2018-04-02T20:21:22.815Z,11.50
2018-04-02T20:23:50.181Z,11.50
2018-04-02T20:26:16.510Z,11.50
2018-04-02T20:28:44.381Z,11.50
2018-04-02T20:31:12.257Z,11.50
2018-04-02T20:33:38.594Z,11.50
2018-04-02T20:36:04.938Z,11.50
2018-04-02T20:38:31.569Z,11.40
2018-04-02T20:40:58.825Z,11.40
2018-04-02T20:43:25.237Z,11.40
2018-04-02T20:45:52.316Z,11.40
2018-04-02T20:48:21.278Z,11.40
2018-04-02T20:50:48.572Z,11.40
2018-04-02T20:53:15.626Z,11.30
2018-04-02T20:55:42.628Z,11.30
2018-04-02T20:58:08.942Z,11.30
2018-04-02T21:00:36.035Z,11.30
2018-04-02T21:03:03.138Z,11.20
2018-04-02T21:05:29.489Z,11.20
2018-04-02T21:07:57.177Z,11.20
2018-04-02T21:10:23.972Z,11.10
2018-04-02T21:12:51.227Z,11.20
2018-04-02T21:15:18.386Z,11.10
2018-04-02T21:17:45.540Z,11.10
2018-04-02T21:20:11.868Z,11.10
2018-04-02T21:22:39.001Z,11.10
2018-04-02T21:25:05.314Z,11.20
2018-04-02T21:27:32.420Z,11.20
2018-04-02T21:29:58.757Z,11.20
2018-04-02T21:32:25.092Z,11.10
2018-04-02T21:34:51.732Z,11.10
2018-04-02T21:37:18.048Z,11.10
2018-04-02T21:39:44.548Z,11.10
2018-04-02T21:42:11.971Z,11.00
2018-04-02T21:44:39.089Z,11.00
2018-04-02T21:47:06.275Z,11.00
2018-04-02T21:49:32.596Z,11.00
2018-04-02T21:51:58.922Z,11.00
2018-04-02T21:54:26.212Z,11.00
2018-04-02T21:56:52.548Z,11.00
2018-04-02T21:59:18.867Z,11.00
2018-04-02T22:01:46.852Z,11.00
2018-04-02T22:04:13.167Z,11.00
2018-04-02T22:06:52.220Z,10.90
2018-04-02T22:09:18.528Z,10.90
2018-04-02T22:11:45.717Z,11.00
2018-04-02T22:14:12.972Z,11.00
2018-04-02T22:16:39.298Z,11.00
2018-04-02T22:19:06.360Z,10.90
2018-04-02T22:21:33.625Z,10.90
2018-04-02T22:24:00.982Z,10.90
2018-04-02T22:26:27.300Z,11.00
2018-04-02T22:28:54.468Z,10.90
2018-04-02T22:31:20.773Z,11.00
2018-04-02T22:33:47.101Z,11.00
2018-04-02T22:36:14.207Z,11.00
2018-04-02T22:38:40.620Z,11.00
2018-04-02T22:41:06.928Z,10.90
2018-04-02T22:43:35.179Z,10.90
2018-04-02T22:46:03.031Z,10.90
2018-04-02T22:48:31.201Z,11.00
2018-04-02T22:50:58.451Z,10.90
2018-04-02T22:53:25.713Z,10.90
2018-04-02T22:55:52.048Z,10.90
2018-04-02T22:58:18.364Z,10.90
2018-04-02T23:00:45.024Z,10.90
2018-04-02T23:03:12.283Z,10.90
2018-04-02T23:05:38.600Z,10.90
2018-04-02T23:08:04.924Z,11.00
2018-04-02T23:10:31.292Z,10.90
2018-04-02T23:12:58.353Z,10.90
2018-04-02T23:15:25.408Z,10.80
2018-04-02T23:17:52.658Z,10.70
2018-04-02T23:20:18.985Z,10.70
2018-04-02T23:22:52.184Z,10.60
2018-04-02T23:25:19.340Z,10.50
2018-04-02T23:27:45.662Z,10.60
2018-04-02T23:30:12.004Z,10.60
2018-04-02T23:32:38.662Z,10.50
2018-04-02T23:35:04.980Z,10.50
2018-04-02T23:37:31.372Z,10.50
2018-04-02T23:39:58.453Z,10.40
2018-04-02T23:42:25.748Z,10.50
2018-04-02T23:44:52.897Z,10.40
2018-04-02T23:47:19.948Z,10.30
2018-04-02T23:49:46.286Z,10.30
2018-04-02T23:52:13.644Z,10.20
2018-04-02T23:54:40.618Z,10.10
2018-04-02T23:57:06.921Z,10.00
2018-04-02T23:59:33.580Z,10.10
